Time;durP1;ratioP1;P1;durP2;ratioP2;P2;SDS_P1;SDS_P2;PMS_P1;PMS_P2;Temp;Humidity;BMP_temperature;BMP_pressure;BME280_temperature;BME280_humidity;BME280_pressure;Samples;Min_cycle;Max_cycle;Signal;HPM_P1;HPM_P2
2020/07/20 00:00:41;;;;;;;6.2;4.5;;;;;;;17.19;80.37598;939.5355;;;;
2020/07/20 00:03:06;;;;;;;5.1;4.4;;;;;;;17.19;80.37598;939.5122;;;;
2020/07/20 00:05:32;;;;;;;4.9;4.4;;;;;;;17.16;80.4043;939.5392;;;;
2020/07/20 00:08:14;;;;;;;5.2;4.7;;;;;;;16.84;81.74805;939.4571;;;;
2020/07/20 00:11:34;;;;;;;7.5;5.2;;;;;;;16.66;82.80469;939.4847;;;;
2020/07/20 00:13:59;;;;;;;7.6;4.9;;;;;;;16.69;82.45215;939.4747;;;;
2020/07/20 00:16:39;;;;;;;6;4.8;;;;;;;16.79;81.97168;939.4824;;;;
2020/07/20 00:19:04;;;;;;;5.7;5.1;;;;;;;16.72;82.18945;939.4551;;;;
2020/07/20 00:21:29;;;;;;;6;4.9;;;;;;;16.74;81.96289;939.4379;;;;
2020/07/20 00:24:07;;;;;;;6.5;5;;;;;;;16.57;82.74121;939.4956;;;;
2020/07/20 00:26:32;;;;;;;6.4;5;;;;;;;16.61;82.57422;939.5105;;;;
2020/07/20 00:28:57;;;;;;;10.1;5;;;;;;;16.6;82.34082;939.5033;;;;
2020/07/20 00:31:22;;;;;;;6.5;4.7;;;;;;;16.55;82.45801;939.4468;;;;
2020/07/20 00:35:59;;;;;;;6.4;4.8;;;;;;;16.49;82.8418;939.4443;;;;
2020/07/20 00:38:33;;;;;;;16.5;6.2;;;;;;;16.54;82.51465;939.3834;;;;
2020/07/20 00:41:12;;;;;;;9.5;5.1;;;;;;;16.44;82.90039;939.3918;;;;
2020/07/20 00:43:37;;;;;;;5.9;4.9;;;;;;;16.38;83.12012;939.377;;;;
2020/07/20 00:46:06;;;;;;;8.6;5.2;;;;;;;16.3;83.62598;939.332;;;;
2020/07/20 00:48:35;;;;;;;8.2;5.3;;;;;;;16.14;84.31348;939.3969;;;;
2020/07/20 00:51:04;;;;;;;6;5.4;;;;;;;15.79;86.06152;939.3875;;;;
2020/07/20 00:55:35;;;;;;;5.7;5.2;;;;;;;15.97;85.4248;939.3484;;;;
2020/07/20 00:58:00;;;;;;;5.6;5.1;;;;;;;16.09;84.68457;939.2816;;;;
2020/07/20 01:00:34;;;;;;;6.9;5.4;;;;;;;16.17;84.31836;939.3644;;;;
2020/07/20 01:03:11;;;;;;;6.6;5.2;;;;;;;16.25;83.61719;939.3647;;;;
2020/07/20 01:06:05;;;;;;;7.7;5.2;;;;;;;16.23;83.76367;939.4002;;;;
2020/07/20 01:08:41;;;;;;;5.6;5.1;;;;;;;16.25;83.60547;939.3823;;;;
2020/07/20 01:11:11;;;;;;;5.3;4.8;;;;;;;16.21;84.01465;939.3447;;;;
2020/07/20 01:13:36;;;;;;;5.4;4.9;;;;;;;16.25;83.7207;939.3575;;;;
2020/07/20 01:16:03;;;;;;;6.2;5.1;;;;;;;16.26;83.44727;939.2689;;;;
2020/07/20 01:18:29;;;;;;;6.8;5.2;;;;;;;16.35;82.92871;939.3531;;;;
2020/07/20 01:21:03;;;;;;;5.9;4.6;;;;;;;16.41;82.30566;939.3582;;;;
2020/07/20 01:23:32;;;;;;;4.9;4.4;;;;;;;16.39;82.09375;939.392;;;;
2020/07/20 01:25:58;;;;;;;10;5.2;;;;;;;16.37;82.01953;939.3875;;;;
2020/07/20 01:28:25;;;;;;;5.6;4.7;;;;;;;16.33;82.13965;939.3541;;;;
2020/07/20 01:31:10;;;;;;;5.5;4.6;;;;;;;16.25;82.48535;939.3365;;;;
2020/07/20 01:33:43;;;;;;;7.1;4.5;;;;;;;16.22;82.69629;939.3642;;;;
2020/07/20 01:36:29;;;;;;;5.8;4.9;;;;;;;16.22;82.40918;939.3361;;;;
2020/07/20 01:38:54;;;;;;;7.5;5.2;;;;;;;16.17;82.71094;939.3275;;;;
2020/07/20 01:41:36;;;;;;;5.5;5;;;;;;;16.11;82.93164;939.2759;;;;
2020/07/20 01:44:07;;;;;;;5.4;4.9;;;;;;;16.01;83.37402;939.2726;;;;
2020/07/20 01:48:43;;;;;;;6.3;5.2;;;;;;;15.93;83.37012;939.2548;;;;
2020/07/20 01:51:08;;;;;;;6.8;5;;;;;;;15.91;83.37793;939.2414;;;;
2020/07/20 01:53:34;;;;;;;7.7;5.5;;;;;;;15.88;83.78906;939.1983;;;;
2020/07/20 01:56:04;;;;;;;5.8;5.2;;;;;;;15.91;83.86328;939.21;;;;
2020/07/20 01:58:30;;;;;;;5.8;5.2;;;;;;;15.89;83.8125;939.1621;;;;
2020/07/20 02:01:32;;;;;;;5.6;5;;;;;;;15.83;84.15039;939.1538;;;;
2020/07/20 02:04:02;;;;;;;5.7;5.1;;;;;;;15.9;83.61914;939.1652;;;;
2020/07/20 02:06:31;;;;;;;8.3;5.6;;;;;;;15.91;83.33398;939.1788;;;;
2020/07/20 02:09:04;;;;;;;8;5.6;;;;;;;15.86;83.38086;939.1905;;;;
2020/07/20 02:11:38;;;;;;;6.9;5.1;;;;;;;15.84;83.45703;939.1144;;;;
2020/07/20 02:14:09;;;;;;;5.9;5.3;;;;;;;15.83;83.43359;939.1322;;;;
2020/07/20 02:16:39;;;;;;;8.1;5.4;;;;;;;15.78;83.6084;939.142;;;;
2020/07/20 02:19:04;;;;;;;5.8;5.2;;;;;;;15.75;83.55664;939.1053;;;;
2020/07/20 02:21:31;;;;;;;5.7;5.2;;;;;;;15.8;83.21875;939.198;;;;
2020/07/20 02:23:59;;;;;;;5.8;4.9;;;;;;;15.8;83.0127;939.1635;;;;
2020/07/20 02:26:44;;;;;;;7;5.1;;;;;;;15.62;84.0293;939.145;;;;
2020/07/20 02:29:08;;;;;;;5.4;4.9;;;;;;;15.54;84.55664;939.2277;;;;
2020/07/20 02:31:51;;;;;;;5.8;5.3;;;;;;;15.67;83.8418;939.1806;;;;
2020/07/20 02:34:16;;;;;;;6.8;5.6;;;;;;;15.71;83.55957;939.1786;;;;
2020/07/20 02:37:03;;;;;;;6.7;5.6;;;;;;;15.75;83.21973;939.2491;;;;
2020/07/20 02:39:28;;;;;;;6.7;5.9;;;;;;;15.75;83.33594;939.1896;;;;
2020/07/20 02:42:05;;;;;;;6.3;5.5;;;;;;;15.74;83.55371;939.2491;;;;
2020/07/20 02:44:30;;;;;;;6.5;5.3;;;;;;;15.73;83.44727;939.2508;;;;
2020/07/20 02:46:58;;;;;;;7.6;5.6;;;;;;;15.66;83.73633;939.2932;;;;
2020/07/20 02:49:40;;;;;;;7.5;5.8;;;;;;;15.65;83.31836;939.2844;;;;
2020/07/20 02:52:05;;;;;;;8.1;5.7;;;;;;;15.56;83.57813;939.2997;;;;
2020/07/20 02:54:34;;;;;;;7.1;5.5;;;;;;;15.55;83.57715;939.2983;;;;
2020/07/20 02:56:59;;;;;;;8.2;5.6;;;;;;;15.55;83.57715;939.3031;;;;
2020/07/20 02:59:25;;;;;;;8.8;5.5;;;;;;;15.56;83.39355;939.3342;;;;
2020/07/20 03:02:00;;;;;;;6.9;5.7;;;;;;;15.52;83.22461;939.3675;;;;
2020/07/20 03:06:35;;;;;;;5.7;5.1;;;;;;;15.22;85.08203;939.3469;;;;
2020/07/20 03:09:02;;;;;;;6.4;5.3;;;;;;;15.25;84.83398;939.3636;;;;
2020/07/20 03:13:39;;;;;;;6.8;5.5;;;;;;;15.28;84.71191;939.373;;;;
2020/07/20 03:16:12;;;;;;;6.7;5.7;;;;;;;15.2;84.98633;939.4205;;;;
2020/07/20 03:18:42;;;;;;;6.2;5.6;;;;;;;15.02;85.9209;939.4321;;;;
2020/07/20 03:21:26;;;;;;;6.6;5.9;;;;;;;14.78;87.54395;939.3775;;;;
2020/07/20 03:24:10;;;;;;;7.3;6.3;;;;;;;14.69;88.35645;939.4389;;;;
2020/07/20 03:26:54;;;;;;;6.9;6.2;;;;;;;14.69;88.49414;939.4653;;;;
2020/07/20 03:29:32;;;;;;;9.6;6.6;;;;;;;14.65;88.49902;939.3973;;;;
2020/07/20 03:33:45;;;;;;;8.3;6.4;;;;;;;14.49;88.85742;939.4955;;;;
2020/07/20 03:36:11;;;;;;;8.2;6.2;;;;;;;14.6;87.94824;939.3804;;;;
2020/07/20 03:38:41;;;;;;;6.9;6.1;;;;;;;14.64;87.33301;939.4863;;;;
2020/07/20 03:42:42;;;;;;;7;6.2;;;;;;;14.51;87.77832;939.4442;;;;
2020/07/20 03:45:39;;;;;;;9.1;6.6;;;;;;;14.42;88.40527;939.5114;;;;
2020/07/20 03:48:07;;;;;;;9.8;8.3;;;;;;;14.57;87.97559;939.5072;;;;
2020/07/20 03:50:37;;;;;;;9.5;6.6;;;;;;;14.49;88.5791;939.5115;;;;
2020/07/20 03:53:02;;;;;;;7.5;6.1;;;;;;;14.43;89.31934;939.5193;;;;
2020/07/20 03:55:28;;;;;;;8.5;6.7;;;;;;;14.57;88.90918;939.5592;;;;
2020/07/20 03:57:55;;;;;;;7.9;5.8;;;;;;;14.79;87.16602;939.4559;;;;
2020/07/20 04:02:43;;;;;;;8.4;5.8;;;;;;;14.83;87.39355;939.5708;;;;
2020/07/20 04:05:51;;;;;;;7;6.1;;;;;;;15.03;86.03906;939.5611;;;;
2020/07/20 04:08:19;;;;;;;6.5;5.6;;;;;;;15.14;85.27441;939.6078;;;;
2020/07/20 04:10:47;;;;;;;8.4;5.7;;;;;;;;;;;;;
2020/07/20 04:13:12;;;;;;;6.2;5.6;;;;;;;;;;;;;
2020/07/20 04:15:39;;;;;;;7.5;6.3;;;;;;;;;;;;;
2020/07/20 04:18:05;;;;;;;6.8;6.2;;;;;;;;;;;;;
2020/07/20 04:20:35;;;;;;;6.8;6.1;;;;;;;;;;;;;
2020/07/20 04:23:02;;;;;;;8.2;6.6;;;;;;;;;;;;;
2020/07/20 04:25:35;;;;;;;10.5;6.2;;;;;;;;;;;;;
2020/07/20 04:28:04;;;;;;;11.8;6.2;;;;;;;;;;;;;
2020/07/20 04:30:30;;;;;;;10.3;5.8;;;;;;;;;;;;;
2020/07/20 04:33:01;;;;;;;7.5;6.1;;;;;;;;;;;;;
2020/07/20 04:35:26;;;;;;;9.1;5.9;;;;;;;;;;;;;
2020/07/20 04:37:51;;;;;;;11.5;6.2;;;;;;;;;;;;;
2020/07/20 04:40:20;;;;;;;10;6.4;;;;;;;;;;;;;
2020/07/20 04:42:45;;;;;;;10.1;6.3;;;;;;;;;;;;;
2020/07/20 04:45:13;;;;;;;6.9;6;;;;;;;;;;;;;
2020/07/20 04:47:39;;;;;;;12.2;6.2;;;;;;;;;;;;;
2020/07/20 04:50:05;;;;;;;7.2;5.6;;;;;;;;;;;;;
2020/07/20 04:52:30;;;;;;;9.4;6.5;;;;;;;;;;;;;
2020/07/20 04:54:55;;;;;;;13.4;6.2;;;;;;;;;;;;;
2020/07/20 04:57:20;;;;;;;7.9;5.5;;;;;;;;;;;;;
2020/07/20 04:59:45;;;;;;;8.3;5.6;;;;;;;;;;;;;
2020/07/20 05:02:15;;;;;;;6.4;5.8;;;;;;;;;;;;;
2020/07/20 05:04:40;;;;;;;10.3;5.8;;;;;;;;;;;;;
2020/07/20 05:07:07;;;;;;;12.6;6.8;;;;;;;;;;;;;
2020/07/20 05:09:33;;;;;;;13.4;6.2;;;;;;;;;;;;;
2020/07/20 05:12:01;;;;;;;12.2;6.4;;;;;;;;;;;;;
2020/07/20 05:14:24;;;;;;;8.3;6;;;;;;;;;;;;;
2020/07/20 05:16:49;;;;;;;8.9;5.8;;;;;;;;;;;;;
2020/07/20 05:19:14;;;;;;;10.5;4.8;;;;;;;;;;;;;
2020/07/20 05:21:39;;;;;;;10.4;4.5;;;;;;;;;;;;;
2020/07/20 05:24:06;;;;;;;11.4;4;;;;;;;;;;;;;
2020/07/20 05:26:31;;;;;;;7.6;3.9;;;;;;;;;;;;;
2020/07/20 05:28:57;;;;;;;7.8;3.9;;;;;;;;;;;;;
2020/07/20 05:31:23;;;;;;;8;3.3;;;;;;;;;;;;;
2020/07/20 05:33:50;;;;;;;7.3;3.2;;;;;;;;;;;;;
2020/07/20 05:36:15;;;;;;;6.3;3.1;;;;;;;;;;;;;
2020/07/20 05:38:41;;;;;;;5.6;3.4;;;;;;;;;;;;;
2020/07/20 05:41:14;;;;;;;7.7;3.3;;;;;;;;;;;;;
2020/07/20 05:43:38;;;;;;;7.2;2.9;;;;;;;;;;;;;
2020/07/20 05:46:04;;;;;;;5.1;2.7;;;;;;;;;;;;;
2020/07/20 05:48:29;;;;;;;7;2.6;;;;;;;;;;;;;
2020/07/20 05:50:58;;;;;;;6.7;2.6;;;;;;;;;;;;;
2020/07/20 05:53:23;;;;;;;3.5;2.4;;;;;;;;;;;;;
2020/07/20 05:55:52;;;;;;;4.4;2.4;;;;;;;;;;;;;
2020/07/20 05:58:18;;;;;;;7.5;2.8;;;;;;;;;;;;;
2020/07/20 06:00:48;;;;;;;6;2.3;;;;;;;;;;;;;
2020/07/20 06:03:14;;;;;;;10.9;3.2;;;;;;;;;;;;;
2020/07/20 06:05:39;;;;;;;4.6;1.9;;;;;;;;;;;;;
2020/07/20 06:08:06;;;;;;;2.3;1.9;;;;;;;;;;;;;
2020/07/20 06:10:32;;;;;;;2.9;1.8;;;;;;;;;;;;;
2020/07/20 06:13:03;;;;;;;4.5;2.1;;;;;;;;;;;;;
2020/07/20 06:15:29;;;;;;;3.8;1.8;;;;;;;;;;;;;
2020/07/20 06:17:53;;;;;;;5.8;2.3;;;;;;;;;;;;;
2020/07/20 06:20:22;;;;;;;3.2;2.1;;;;;;;;;;;;;
2020/07/20 06:22:49;;;;;;;5;2.5;;;;;;;;;;;;;
2020/07/20 06:25:17;;;;;;;4.8;2.3;;;;;;;;;;;;;
2020/07/20 06:27:49;;;;;;;4.6;2;;;;;;;;;;;;;
2020/07/20 06:30:22;;;;;;;6.1;2.5;;;;;;;;;;;;;
2020/07/20 06:32:49;;;;;;;3.2;2.2;;;;;;;;;;;;;
2020/07/20 06:35:14;;;;;;;10.3;2.5;;;;;;;;;;;;;
2020/07/20 06:37:40;;;;;;;3.9;1.9;;;;;;;;;;;;;
2020/07/20 06:40:05;;;;;;;7.4;2.2;;;;;;;;;;;;;
2020/07/20 06:42:30;;;;;;;4.4;2;;;;;;;;;;;;;
2020/07/20 06:44:57;;;;;;;2.7;1.8;;;;;;;;;;;;;
2020/07/20 06:47:22;;;;;;;2.7;1.8;;;;;;;;;;;;;
2020/07/20 06:49:49;;;;;;;1.7;1.6;;;;;;;;;;;;;
2020/07/20 06:52:15;;;;;;;5.6;1.8;;;;;;;;;;;;;
2020/07/20 06:54:40;;;;;;;4.4;2;;;;;;;;;;;;;
2020/07/20 06:57:09;;;;;;;10.7;2.6;;;;;;;;;;;;;
2020/07/20 06:59:34;;;;;;;3.5;1.8;;;;;;;;;;;;;
2020/07/20 07:02:00;;;;;;;3.8;1.6;;;;;;;;;;;;;
2020/07/20 07:04:25;;;;;;;4.5;1.9;;;;;;;;;;;;;
2020/07/20 07:06:51;;;;;;;5.8;1.8;;;;;;;;;;;;;
2020/07/20 07:09:17;;;;;;;5.2;1.6;;;;;;;;;;;;;
2020/07/20 07:11:43;;;;;;;2.2;1.5;;;;;;;;;;;;;
2020/07/20 07:14:08;;;;;;;4.4;1.8;;;;;;;;;;;;;
2020/07/20 07:16:34;;;;;;;3.9;1.5;;;;;;;;;;;;;
2020/07/20 07:18:59;;;;;;;3.2;1.6;;;;;;;;;;;;;
2020/07/20 07:21:26;;;;;;;2.1;1.4;;;;;;;;;;;;;
2020/07/20 07:23:50;;;;;;;3.2;1.5;;;;;;;;;;;;;
2020/07/20 07:26:16;;;;;;;3.5;1.6;;;;;;;;;;;;;
2020/07/20 07:28:41;;;;;;;5.2;1.6;;;;;;;;;;;;;
2020/07/20 07:31:22;;;;;;;2.4;1.5;;;;;;;;;;;;;
2020/07/20 07:33:43;;;;;;;2.3;1.5;;;;;;;;;;;;;
2020/07/20 07:36:09;;;;;;;1.8;1.4;;;;;;;;;;;;;
2020/07/20 07:38:34;;;;;;;4;1.4;;;;;;;;;;;;;
2020/07/20 07:41:00;;;;;;;2;1.5;;;;;;;;;;;;;
2020/07/20 07:43:25;;;;;;;3.4;1.4;;;;;;;;;;;;;
2020/07/20 07:45:51;;;;;;;1.7;1.5;;;;;;;;;;;;;
2020/07/20 07:48:16;;;;;;;2.4;1.4;;;;;;;;;;;;;
2020/07/20 07:50:41;;;;;;;1.7;1.3;;;;;;;;;;;;;
2020/07/20 07:53:06;;;;;;;4.1;1.5;;;;;;;;;;;;;
2020/07/20 07:55:31;;;;;;;2.7;1.4;;;;;;;;;;;;;
2020/07/20 07:57:57;;;;;;;2.5;1.5;;;;;;;;;;;;;
2020/07/20 08:00:32;;;;;;;2.1;1.6;;;;;;;;;;;;;
2020/07/20 08:02:57;;;;;;;1.5;1.4;;;;;;;;;;;;;
2020/07/20 08:06:22;;;;;;;3.3;1.4;;;;;;;35.6;26.87598;938.671;;;;
2020/07/20 08:08:49;;;;;;;1.5;1.2;;;;;;;36.15;30.0166;938.7133;;;;
2020/07/20 08:11:14;;;;;;;1.7;1.3;;;;;;;35.93;27.46387;938.709;;;;
2020/07/20 08:13:41;;;;;;;2.5;1.4;;;;;;;36.74;28.91699;938.7467;;;;
2020/07/20 08:16:06;;;;;;;1.7;1.1;;;;;;;37.12;25.57227;938.6815;;;;
2020/07/20 08:18:36;;;;;;;2.8;1.3;;;;;;;38.32;26.34375;938.6942;;;;
2020/07/20 08:21:00;;;;;;;2.8;1.3;;;;;;;38.53;26.13672;938.6481;;;;
2020/07/20 08:23:27;;;;;;;1.9;1.2;;;;;;;38.06;25.1748;938.6715;;;;
2020/07/20 08:25:54;;;;;;;1.2;1.1;;;;;;;38.25;24.14063;938.7029;;;;
2020/07/20 08:28:19;;;;;;;1.5;1.2;;;;;;;37.37;27.11328;938.7386;;;;
2020/07/20 08:30:51;;;;;;;1.2;1.1;;;;;;;37.35;25.45117;938.7058;;;;
2020/07/20 08:33:32;;;;;;;2.1;1.2;;;;;;;37.1;25.98242;938.685;;;;
2020/07/20 08:35:57;;;;;;;2;1.1;;;;;;;38.15;22.77539;938.6614;;;;
2020/07/20 08:38:25;;;;;;;1.2;1.1;;;;;;;36.83;26.33105;938.7258;;;;
2020/07/20 08:40:50;;;;;;;1.7;1.2;;;;;;;37.87;26.91211;938.7167;;;;
2020/07/20 08:43:16;;;;;;;1.4;1;;;;;;;38.5;24.98047;938.6473;;;;
2020/07/20 08:45:55;;;;;;;1.2;1;;;;;;;38.83;24.9248;938.7372;;;;
2020/07/20 08:50:11;;;;;;;1.6;1.2;;;;;;;39.32;23.77051;938.7274;;;;
2020/07/20 08:52:41;;;;;;;2.9;1.1;;;;;;;39.19;24.95703;938.7012;;;;
2020/07/20 08:55:06;;;;;;;1.6;1;;;;;;;39.54;22.27051;938.6981;;;;
2020/07/20 08:57:31;;;;;;;1.5;1.1;;;;;;;40.13;22.59277;938.7631;;;;
2020/07/20 09:00:00;;;;;;;1.9;1;;;;;;;39.29;24.29297;938.7511;;;;
2020/07/20 09:02:49;;;;;;;2.3;1;;;;;;;39.64;24.64063;938.7608;;;;
2020/07/20 09:05:14;;;;;;;1;0.9;;;;;;;38.77;24.375;938.7308;;;;
2020/07/20 09:07:39;;;;;;;3.9;1.2;;;;;;;39.6;24.02832;938.7161;;;;
2020/07/20 09:10:10;;;;;;;3.2;1.2;;;;;;;38.11;23.23438;938.6881;;;;
2020/07/20 09:12:35;;;;;;;2.4;1.2;;;;;;;38.55;25.60254;938.6933;;;;
2020/07/20 09:15:01;;;;;;;4.2;1.2;;;;;;;38.31;26.97461;938.7385;;;;
2020/07/20 09:17:30;;;;;;;1.3;1;;;;;;;37.13;29.17285;938.7719;;;;
2020/07/20 09:19:55;;;;;;;2.5;1.3;;;;;;;37.32;25.09766;938.7496;;;;
2020/07/20 09:22:20;;;;;;;2.9;1;;;;;;;36.88;27.82422;938.8127;;;;
2020/07/20 09:24:48;;;;;;;2.8;0.9;;;;;;;36.71;27.77734;938.8226;;;;
2020/07/20 09:27:13;;;;;;;1.8;1.1;;;;;;;35.92;30.30371;938.7562;;;;
2020/07/20 09:29:46;;;;;;;2.1;0.9;;;;;;;35.44;29.36621;938.8215;;;;
2020/07/20 09:32:16;;;;;;;1.5;0.8;;;;;;;35.26;32.04688;938.7843;;;;
2020/07/20 09:34:44;;;;;;;1.4;1.1;;;;;;;35.38;29.65234;938.7789;;;;
2020/07/20 09:37:11;;;;;;;1.2;1.1;;;;;;;35.69;29.31055;938.7704;;;;
2020/07/20 09:39:36;;;;;;;1.5;1;;;;;;;35.84;29.1748;938.7886;;;;
2020/07/20 09:42:02;;;;;;;1.5;1;;;;;;;36.03;28.46094;938.8234;;;;
2020/07/20 09:44:27;;;;;;;1.3;0.9;;;;;;;36.03;28.65527;938.8125;;;;
2020/07/20 09:46:55;;;;;;;3.7;1.2;;;;;;;35.91;29.95313;938.8301;;;;
2020/07/20 09:49:21;;;;;;;5.4;1;;;;;;;35.68;28.35449;938.8215;;;;
2020/07/20 09:51:46;;;;;;;2.3;1;;;;;;;35.27;29.15039;938.843;;;;
2020/07/20 09:54:16;;;;;;;2.7;1.2;;;;;;;34.76;29.52832;938.8047;;;;
2020/07/20 09:56:42;;;;;;;1.9;1.2;;;;;;;34.66;30.41309;938.7787;;;;
2020/07/20 09:59:09;;;;;;;1.5;1.3;;;;;;;34.36;30.83887;938.8136;;;;
2020/07/20 10:01:41;;;;;;;2.8;1.1;;;;;;;34.38;30.63574;938.791;;;;
2020/07/20 10:04:09;;;;;;;3.3;1.1;;;;;;;34;32.1748;938.8258;;;;
2020/07/20 10:06:34;;;;;;;1.6;1.1;;;;;;;33.69;32.28613;938.7778;;;;
2020/07/20 10:09:00;;;;;;;2;1.3;;;;;;;33.54;32.74414;938.7822;;;;
2020/07/20 10:11:25;;;;;;;2.3;1.2;;;;;;;33.54;32.02246;938.8086;;;;
2020/07/20 10:13:50;;;;;;;1.8;1.3;;;;;;;33.61;32.21973;938.8066;;;;
2020/07/20 10:16:15;;;;;;;2.7;1.4;;;;;;;33.48;31.74219;938.7947;;;;
2020/07/20 10:18:41;;;;;;;1.7;1.4;;;;;;;33.03;35.31348;938.8071;;;;
2020/07/20 10:21:06;;;;;;;1.7;1;;;;;;;33.05;33.26172;938.7781;;;;
2020/07/20 10:23:31;;;;;;;2.3;1.2;;;;;;;33.09;33.69727;938.8324;;;;
2020/07/20 10:26:24;;;;;;;3.4;1.3;;;;;;;33.26;34.4668;938.8146;;;;
2020/07/20 10:30:29;;;;;;;3.4;1.3;;;;;;;33.33;32.69238;938.8239;;;;
2020/07/20 10:34:24;;;;;;;2.1;1.3;;;;;;;33.38;32.43164;938.82;;;;
2020/07/20 10:36:49;;;;;;;1.2;1.1;;;;;;;33.52;33.31934;938.8074;;;;
2020/07/20 10:40:02;;;;;;;2.1;1.2;;;;;;;33.68;34.55859;938.8002;;;;
2020/07/20 10:44:35;;;;;;;2.7;1.3;;;;;;;33.83;32.36816;938.7938;;;;
2020/07/20 10:47:00;;;;;;;1.9;1.3;;;;;;;33.57;34.2373;938.7675;;;;
2020/07/20 10:49:26;;;;;;;1.5;1.3;;;;;;;33.81;33.73828;938.8108;;;;
2020/07/20 10:51:55;;;;;;;1.4;1.2;;;;;;;33.41;34.88672;938.7681;;;;
2020/07/20 10:54:24;;;;;;;2.2;1.4;;;;;;;33.31;34.3252;938.7708;;;;
2020/07/20 10:56:57;;;;;;;1.6;1.4;;;;;;;32.9;33.89844;938.7883;;;;
2020/07/20 10:59:25;;;;;;;1.4;1.3;;;;;;;32.58;33.5625;938.8183;;;;
2020/07/20 11:02:37;;;;;;;3.3;1.3;;;;;;;32.33;35.0791;938.8142;;;;
2020/07/20 11:05:02;;;;;;;2.5;1.5;;;;;;;32.25;35.625;938.7211;;;;
2020/07/20 11:07:27;;;;;;;1.3;1.2;;;;;;;32.07;36.03027;938.8345;;;;
2020/07/20 11:09:52;;;;;;;2;1.4;;;;;;;32.26;35.60156;938.8638;;;;
2020/07/20 11:12:18;;;;;;;1.9;1.4;;;;;;;32.63;35.30664;938.8438;;;;
2020/07/20 11:14:43;;;;;;;2.3;1.5;;;;;;;32.6;37.18848;938.8005;;;;
2020/07/20 11:17:11;;;;;;;2.3;1.3;;;;;;;31.99;36.45508;938.7562;;;;
2020/07/20 11:19:36;;;;;;;3.6;1.5;;;;;;;31.55;38.88574;938.8102;;;;
2020/07/20 11:22:02;;;;;;;1.7;1.3;;;;;;;31.02;38.66113;938.7897;;;;
2020/07/20 11:24:27;;;;;;;1.6;1.4;;;;;;;31.15;38.24219;938.8195;;;;
2020/07/20 11:27:16;;;;;;;2.1;1.5;;;;;;;31.3;39.7627;938.8013;;;;
2020/07/20 11:29:43;;;;;;;1.4;1.3;;;;;;;31.36;38.51074;938.7186;;;;
2020/07/20 11:32:08;;;;;;;4.6;1.8;;;;;;;31.21;38.16309;938.741;;;;
2020/07/20 11:34:34;;;;;;;4.1;1.4;;;;;;;31.31;36.56836;938.7653;;;;
2020/07/20 11:38:21;;;;;;;3.6;1.6;;;;;;;31.47;35.74316;938.7665;;;;
2020/07/20 11:40:49;;;;;;;4;1.8;;;;;;;31.55;38.58691;938.7957;;;;
2020/07/20 11:43:30;;;;;;;5.6;1.8;;;;;;;31.24;37.20898;938.7831;;;;
2020/07/20 11:45:58;;;;;;;1.8;1.3;;;;;;;31.29;39.21094;938.7822;;;;
2020/07/20 11:48:23;;;;;;;3.1;1.5;;;;;;;31.09;37.60254;938.7866;;;;
2020/07/20 11:51:14;;;;;;;2.4;1.4;;;;;;;30.83;38.05957;938.7234;;;;
2020/07/20 11:53:40;;;;;;;3.8;1.5;;;;;;;30.92;39.86035;938.7678;;;;
2020/07/20 11:56:05;;;;;;;2.8;1.4;;;;;;;30.7;38.25195;938.7003;;;;
2020/07/20 11:58:30;;;;;;;4;1.7;;;;;;;30.68;37.99902;938.6869;;;;
2020/07/20 12:00:55;;;;;;;4.2;1.8;;;;;;;30.71;37.94238;938.6887;;;;
2020/07/20 12:03:20;;;;;;;5.1;1.6;;;;;;;30.68;39.86328;938.683;;;;
2020/07/20 12:05:48;;;;;;;3.3;1.7;;;;;;;30.64;39.31055;938.6969;;;;
2020/07/20 12:08:16;;;;;;;8.7;1.8;;;;;;;30.35;40.06055;938.6708;;;;
2020/07/20 12:10:44;;;;;;;2.8;1.6;;;;;;;30.15;39.55371;938.738;;;;
2020/07/20 12:15:32;;;;;;;2.7;1.5;;;;;;;30.49;38.26855;938.6987;;;;
2020/07/20 12:17:57;;;;;;;1.8;1.6;;;;;;;30.64;39.78809;938.6508;;;;
2020/07/20 12:20:25;;;;;;;2.8;1.9;;;;;;;30.75;38.47168;938.6261;;;;
2020/07/20 12:23:06;;;;;;;1.6;1.5;;;;;;;30.78;37.18359;938.6174;;;;
2020/07/20 12:26:26;;;;;;;2.8;1.7;;;;;;;30.7;37.94141;938.6319;;;;
2020/07/20 12:28:50;;;;;;;3;1.6;;;;;;;30.61;38.68555;938.6263;;;;
2020/07/20 12:31:15;;;;;;;2.2;1.5;;;;;;;30.56;39.02832;938.5686;;;;
2020/07/20 12:33:46;;;;;;;1.5;1.4;;;;;;;30.5;38.58105;938.6241;;;;
2020/07/20 12:36:12;;;;;;;3.9;1.7;;;;;;;30.74;39.37891;938.608;;;;
2020/07/20 12:38:37;;;;;;;3.7;1.7;;;;;;;30.73;38.48145;938.6308;;;;
2020/07/20 12:41:32;;;;;;;4.4;1.6;;;;;;;30.66;38.46289;938.6097;;;;
2020/07/20 12:43:59;;;;;;;4.6;1.6;;;;;;;30.75;40.32324;938.5895;;;;
2020/07/20 12:46:27;;;;;;;5.3;1.7;;;;;;;30.89;38.30371;938.5961;;;;
2020/07/20 12:48:53;;;;;;;4.2;1.6;;;;;;;30.27;38.63379;938.6267;;;;
2020/07/20 12:51:30;;;;;;;5.4;1.6;;;;;;;30.41;38.59766;938.6194;;;;
2020/07/20 12:53:55;;;;;;;3.9;1.8;;;;;;;30.06;39.7959;938.6231;;;;
2020/07/20 12:56:20;;;;;;;4.1;1.8;;;;;;;29.87;40.40039;938.629;;;;
2020/07/20 12:58:47;;;;;;;2.6;1.6;;;;;;;30.15;38.49121;938.6763;;;;
2020/07/20 13:01:18;;;;;;;3.7;1.6;;;;;;;30.1;41.3877;938.7279;;;;
2020/07/20 13:05:47;;;;;;;2.6;1.6;;;;;;;30.31;40.37988;938.6578;;;;
2020/07/20 13:08:27;;;;;;;2.2;1.6;;;;;;;30.37;38.85742;938.6422;;;;
2020/07/20 13:10:52;;;;;;;2.6;1.6;;;;;;;30.56;38.81348;938.5605;;;;
2020/07/20 13:13:17;;;;;;;2.4;1.6;;;;;;;30.54;39.14648;938.5519;;;;
2020/07/20 13:15:47;;;;;;;1.9;1.7;;;;;;;30.69;38.06055;938.5815;;;;
2020/07/20 13:18:12;;;;;;;2.8;1.6;;;;;;;30.66;40.1123;938.6505;;;;
2020/07/20 13:20:37;;;;;;;2.6;1.6;;;;;;;30.53;37.73535;938.5723;;;;
2020/07/20 13:23:02;;;;;;;4.4;1.5;;;;;;;30.6;37.39453;938.6386;;;;
2020/07/20 13:25:27;;;;;;;3.7;1.6;;;;;;;30.48;40.33496;938.6524;;;;
2020/07/20 13:27:52;;;;;;;4.6;1.7;;;;;;;30.37;38.05664;938.4906;;;;
2020/07/20 13:30:20;;;;;;;2;1.6;;;;;;;30.33;38.88867;938.5365;;;;
2020/07/20 13:32:45;;;;;;;3.2;1.7;;;;;;;30.41;38.22754;938.5652;;;;
2020/07/20 13:35:10;;;;;;;4.4;1.6;;;;;;;30.48;37.91113;938.514;;;;
2020/07/20 13:37:35;;;;;;;4.8;1.7;;;;;;;30.32;39.71289;938.522;;;;
2020/07/20 13:40:00;;;;;;;3.3;1.7;;;;;;;30.33;38.60254;938.4944;;;;
2020/07/20 13:42:37;;;;;;;5.4;1.6;;;;;;;30.36;39.7627;938.5403;;;;
2020/07/20 13:45:03;;;;;;;3.4;1.6;;;;;;;30.49;41.17188;938.5505;;;;
2020/07/20 13:47:35;;;;;;;4.1;1.5;;;;;;;30.65;39.19043;938.5472;;;;
2020/07/20 13:50:00;;;;;;;4.6;2;;;;;;;30.67;38.51172;938.5181;;;;
2020/07/20 13:52:28;;;;;;;4;1.7;;;;;;;30.47;38.36426;938.5397;;;;
2020/07/20 13:54:51;;;;;;;3.4;1.7;;;;;;;30.34;38.74707;938.5611;;;;
2020/07/20 13:57:16;;;;;;;3;1.7;;;;;;;30.35;37.53027;938.5463;;;;
2020/07/20 13:59:41;;;;;;;2.6;1.6;;;;;;;30.34;40.27539;938.525;;;;
2020/07/20 14:02:06;;;;;;;3.2;1.6;;;;;;;30.24;39.15527;938.5031;;;;
2020/07/20 14:04:38;;;;;;;2.3;1.7;;;;;;;29.82;39.20313;938.5236;;;;
2020/07/20 14:07:04;;;;;;;3.6;1.7;;;;;;;29.72;40.64941;938.5302;;;;
2020/07/20 14:09:28;;;;;;;3.4;1.7;;;;;;;29.83;42.74609;938.5453;;;;
2020/07/20 14:11:53;;;;;;;2.9;1.7;;;;;;;29.81;41.80273;938.5541;;;;
2020/07/20 14:14:19;;;;;;;4.7;1.7;;;;;;;29.85;40.30273;938.5311;;;;
2020/07/20 14:16:43;;;;;;;2.3;1.9;;;;;;;29.85;40.79102;938.543;;;;
2020/07/20 14:19:10;;;;;;;2.5;1.6;;;;;;;29.8;40.96582;938.522;;;;
2020/07/20 14:21:35;;;;;;;4.9;1.8;;;;;;;29.93;39.35547;938.5201;;;;
2020/07/20 14:24:00;;;;;;;2.7;1.6;;;;;;;30.03;39.69824;938.549;;;;
2020/07/20 14:26:25;;;;;;;4.2;1.9;;;;;;;29.79;39.61816;938.5349;;;;
2020/07/20 14:28:50;;;;;;;2.7;1.9;;;;;;;29.57;40.87402;938.4895;;;;
2020/07/20 14:31:15;;;;;;;3.3;1.7;;;;;;;29.53;41.01367;938.5358;;;;
2020/07/20 14:33:42;;;;;;;2.4;1.6;;;;;;;29.48;40.61621;938.5295;;;;
2020/07/20 14:36:08;;;;;;;3.4;1.7;;;;;;;29.44;40.67188;938.5295;;;;
2020/07/20 14:38:33;;;;;;;3.4;2;;;;;;;29.3;41.05176;938.5201;;;;
2020/07/20 14:41:00;;;;;;;2.8;1.8;;;;;;;29.48;43.10645;938.6293;;;;
2020/07/20 14:43:25;;;;;;;2.1;1.7;;;;;;;29.52;40.1543;938.6281;;;;
2020/07/20 14:45:58;;;;;;;2.5;1.7;;;;;;;29.42;40.53809;938.5856;;;;
2020/07/20 14:48:24;;;;;;;1.9;1.7;;;;;;;29.49;40.16406;938.5731;;;;
2020/07/20 14:50:49;;;;;;;6.6;1.9;;;;;;;29.53;41.10938;938.6077;;;;
2020/07/20 14:53:14;;;;;;;6.1;1.9;;;;;;;29.55;41.21777;938.5754;;;;
2020/07/20 14:55:40;;;;;;;4.5;1.8;;;;;;;29.57;42.32715;938.6294;;;;
2020/07/20 14:58:04;;;;;;;5.8;2.1;;;;;;;29.47;41.85449;938.5892;;;;
2020/07/20 15:00:37;;;;;;;3.4;1.9;;;;;;;29.44;42.3877;938.6001;;;;
2020/07/20 15:03:02;;;;;;;2.9;2;;;;;;;29.29;42.69531;938.6061;;;;
2020/07/20 15:05:27;;;;;;;3.5;1.8;;;;;;;29.2;43.17578;938.6054;;;;
2020/07/20 15:07:52;;;;;;;3.4;1.7;;;;;;;29.11;41.96289;938.5779;;;;
2020/07/20 15:10:17;;;;;;;2.3;1.7;;;;;;;29.1;43.36816;938.5798;;;;
2020/07/20 15:12:42;;;;;;;3.5;1.6;;;;;;;29.08;42.99707;938.5891;;;;
2020/07/20 15:15:07;;;;;;;6.2;1.9;;;;;;;28.93;42.74414;938.5637;;;;
2020/07/20 15:17:33;;;;;;;4.2;1.7;;;;;;;28.92;42.67188;938.5909;;;;
2020/07/20 15:19:58;;;;;;;3.7;1.7;;;;;;;28.98;43.78418;938.5461;;;;
2020/07/20 15:22:23;;;;;;;5.6;2.1;;;;;;;28.92;43.18457;938.5873;;;;
2020/07/20 15:24:48;;;;;;;3.4;1.8;;;;;;;28.65;41.98047;938.6781;;;;
2020/07/20 15:27:13;;;;;;;2.6;1.7;;;;;;;28.75;40.96582;938.6373;;;;
2020/07/20 15:29:39;;;;;;;2.8;1.7;;;;;;;28.74;41.51367;938.6543;;;;
2020/07/20 15:32:05;;;;;;;2.7;1.7;;;;;;;28.65;42.74121;938.627;;;;
2020/07/20 15:34:32;;;;;;;2.1;1.6;;;;;;;28.47;40.42969;938.5906;;;;
2020/07/20 15:36:57;;;;;;;2.9;1.7;;;;;;;28.43;40.27051;938.5776;;;;
2020/07/20 15:39:24;;;;;;;3.6;1.9;;;;;;;28.34;40.97656;938.6194;;;;
2020/07/20 15:41:49;;;;;;;3.2;1.8;;;;;;;28.36;41.27637;938.5111;;;;
2020/07/20 15:44:17;;;;;;;4.3;1.8;;;;;;;28.36;41.28809;938.6061;;;;
2020/07/20 15:46:42;;;;;;;4.5;1.9;;;;;;;28.4;42.40918;938.5847;;;;
2020/07/20 15:49:07;;;;;;;2.6;1.6;;;;;;;28.31;43.50586;938.6432;;;;
2020/07/20 15:51:35;;;;;;;4.3;1.6;;;;;;;28.3;43.3623;938.5917;;;;
2020/07/20 15:54:00;;;;;;;3.6;2.1;;;;;;;28.3;42.6377;938.5858;;;;
2020/07/20 15:56:27;;;;;;;2.8;1.8;;;;;;;28.25;41.5752;938.6353;;;;
2020/07/20 15:58:52;;;;;;;3.6;1.8;;;;;;;28.18;42.12695;938.6392;;;;
2020/07/20 16:01:18;;;;;;;3.6;1.9;;;;;;;27.99;41.50293;938.6636;;;;
2020/07/20 16:03:46;;;;;;;3.8;1.8;;;;;;;27.89;41.24414;938.6858;;;;
2020/07/20 16:06:11;;;;;;;5.5;2;;;;;;;28;41.37305;938.6918;;;;
2020/07/20 16:08:37;;;;;;;3.3;1.8;;;;;;;28.04;42.74316;938.6855;;;;
2020/07/20 16:11:02;;;;;;;2.6;1.7;;;;;;;28.06;42.61426;938.7475;;;;
2020/07/20 16:13:31;;;;;;;4.8;1.8;;;;;;;27.88;41.07715;938.6987;;;;
2020/07/20 16:16:01;;;;;;;3.3;1.8;;;;;;;27.75;41.68359;938.7637;;;;